createdAt,value
2022-10-31T00:00:15.566Z,1008.06
2022-10-31T00:01:15.491Z,1008.07
2022-10-31T00:02:15.519Z,1008.10
2022-10-31T00:03:15.446Z,1008.10
2022-10-31T00:04:15.412Z,1008.09
2022-10-31T00:05:15.412Z,1008.08
2022-10-31T00:06:15.414Z,1008.09
2022-10-31T00:07:15.428Z,1008.09
2022-10-31T00:08:15.400Z,1008.08
2022-10-31T00:09:15.363Z,1008.07
2022-10-31T00:10:15.399Z,1008.06
2022-10-31T00:11:15.361Z,1008.06
2022-10-31T00:12:15.363Z,1008.07
2022-10-31T00:13:15.452Z,1008.08
2022-10-31T00:14:15.348Z,1008.08
2022-10-31T00:15:15.309Z,1008.08
2022-10-31T00:16:15.348Z,1008.09
2022-10-31T00:17:15.287Z,1008.10
2022-10-31T00:18:15.296Z,1008.08
2022-10-31T00:19:15.263Z,1008.05
2022-10-31T00:20:15.267Z,1008.05
2022-10-31T00:21:15.265Z,1008.05
2022-10-31T00:22:15.240Z,1008.06
2022-10-31T00:23:15.220Z,1008.07
2022-10-31T00:24:15.215Z,1008.08
2022-10-31T00:25:15.207Z,1008.10
2022-10-31T00:26:15.289Z,1008.10
2022-10-31T00:27:15.211Z,1008.10
2022-10-31T00:28:15.248Z,1008.10
2022-10-31T00:29:15.160Z,1008.11
2022-10-31T00:30:15.155Z,1008.13
2022-10-31T00:31:15.149Z,1008.14
2022-10-31T00:32:15.189Z,1008.15
2022-10-31T00:33:15.124Z,1008.15
2022-10-31T00:34:15.136Z,1008.13
2022-10-31T00:35:15.128Z,1008.13
2022-10-31T00:36:15.100Z,1008.14
2022-10-31T00:37:15.097Z,1008.12
2022-10-31T00:38:15.072Z,1008.11
2022-10-31T00:39:15.049Z,1008.11
2022-10-31T00:40:15.056Z,1008.10
2022-10-31T00:41:15.031Z,1008.10
2022-10-31T00:42:15.057Z,1008.11
2022-10-31T00:43:15.014Z,1008.12
2022-10-31T00:44:15.013Z,1008.12
2022-10-31T00:45:14.995Z,1008.14
2022-10-31T00:46:14.982Z,1008.14
2022-10-31T00:47:14.969Z,1008.14
2022-10-31T00:48:14.989Z,1008.14
2022-10-31T00:49:14.941Z,1008.14
2022-10-31T00:50:14.947Z,1008.13
2022-10-31T00:51:14.926Z,1008.10
2022-10-31T00:52:14.918Z,1008.08
2022-10-31T00:53:14.942Z,1008.10
2022-10-31T00:54:15.026Z,1008.14
2022-10-31T00:55:14.873Z,1008.17
2022-10-31T00:56:14.877Z,1008.15
2022-10-31T00:57:14.866Z,1008.11
2022-10-31T00:59:14.823Z,1008.07
2022-10-31T01:00:14.852Z,1008.09
2022-10-31T01:01:14.917Z,1008.09
2022-10-31T01:02:14.991Z,1008.09
2022-10-31T01:03:14.818Z,1008.10
2022-10-31T01:04:14.813Z,1008.12
2022-10-31T01:05:14.782Z,1008.13
2022-10-31T01:06:14.782Z,1008.14
2022-10-31T01:07:14.798Z,1008.17
2022-10-31T01:08:14.760Z,1008.17
2022-10-31T01:09:14.745Z,1008.14
2022-10-31T01:10:14.735Z,1008.12
2022-10-31T01:11:14.701Z,1008.14
2022-10-31T01:12:14.693Z,1008.16
2022-10-31T01:13:14.714Z,1008.18
2022-10-31T01:14:14.684Z,1008.20
2022-10-31T01:15:14.675Z,1008.20
2022-10-31T01:16:14.656Z,1008.19
2022-10-31T01:17:14.643Z,1008.17
2022-10-31T01:18:14.650Z,1008.15
2022-10-31T01:19:14.622Z,1008.15
2022-10-31T01:20:14.614Z,1008.16
2022-10-31T01:21:14.608Z,1008.17
2022-10-31T01:22:14.634Z,1008.17
2022-10-31T01:23:14.571Z,1008.16
2022-10-31T01:24:14.573Z,1008.16
2022-10-31T01:25:14.783Z,1008.16
2022-10-31T01:26:14.567Z,1008.15
2022-10-31T01:27:14.519Z,1008.15
2022-10-31T01:28:14.586Z,1008.16
2022-10-31T01:29:14.523Z,1008.18
2022-10-31T01:30:14.578Z,1008.18
2022-10-31T01:31:14.508Z,1008.19
2022-10-31T01:32:14.520Z,1008.20
2022-10-31T01:33:14.462Z,1008.22
2022-10-31T01:34:14.493Z,1008.23
2022-10-31T01:35:14.451Z,1008.24
2022-10-31T01:36:14.454Z,1008.24
2022-10-31T01:37:14.428Z,1008.23
2022-10-31T01:38:14.427Z,1008.20
2022-10-31T01:39:14.498Z,1008.17
2022-10-31T01:40:14.404Z,1008.16
2022-10-31T01:41:14.402Z,1008.16
2022-10-31T01:42:14.402Z,1008.17
2022-10-31T01:43:14.449Z,1008.18
2022-10-31T01:44:14.400Z,1008.19
2022-10-31T01:45:14.349Z,1008.18
2022-10-31T01:46:14.387Z,1008.18
2022-10-31T01:47:14.363Z,1008.17
2022-10-31T01:48:14.313Z,1008.16
2022-10-31T01:49:14.297Z,1008.16
2022-10-31T01:50:14.308Z,1008.17
2022-10-31T01:51:14.272Z,1008.18
2022-10-31T01:52:14.294Z,1008.18
2022-10-31T01:53:14.257Z,1008.17
2022-10-31T01:54:15.402Z,1008.16
2022-10-31T01:55:14.228Z,1008.16
2022-10-31T01:56:14.227Z,1008.17
2022-10-31T01:57:14.243Z,1008.17
2022-10-31T01:58:14.317Z,1008.18
2022-10-31T01:59:14.222Z,1008.20
2022-10-31T02:00:14.167Z,1008.21
2022-10-31T02:01:14.290Z,1008.20
2022-10-31T02:02:14.418Z,1008.18
2022-10-31T02:03:14.159Z,1008.14
2022-10-31T02:04:14.140Z,1008.12
2022-10-31T02:05:14.137Z,1008.11
2022-10-31T02:06:14.116Z,1008.12
2022-10-31T02:07:14.098Z,1008.13
2022-10-31T02:08:14.115Z,1008.13
2022-10-31T02:09:14.089Z,1008.13
2022-10-31T02:10:14.094Z,1008.13
2022-10-31T02:11:14.047Z,1008.13
2022-10-31T02:12:14.055Z,1008.13
2022-10-31T02:13:14.239Z,1008.14
2022-10-31T02:14:14.034Z,1008.17
2022-10-31T02:15:14.029Z,1008.19
2022-10-31T02:16:14.801Z,1008.21
2022-10-31T02:17:13.987Z,1008.22
2022-10-31T02:18:14.007Z,1008.22
2022-10-31T02:19:13.965Z,1008.22
2022-10-31T02:20:13.968Z,1008.21
2022-10-31T02:21:13.958Z,1008.22
2022-10-31T02:22:13.934Z,1008.22
2022-10-31T02:23:14.493Z,1008.24
2022-10-31T02:24:13.934Z,1008.24
2022-10-31T02:25:13.914Z,1008.23
2022-10-31T02:26:13.909Z,1008.20
2022-10-31T02:27:13.877Z,1008.16
2022-10-31T02:28:13.964Z,1008.15
2022-10-31T02:29:13.864Z,1008.16
2022-10-31T02:30:13.864Z,1008.19
2022-10-31T02:31:13.837Z,1008.22
2022-10-31T02:32:13.836Z,1008.25
2022-10-31T02:33:13.817Z,1008.27
2022-10-31T02:34:13.843Z,1008.29
2022-10-31T02:35:17.515Z,1008.30
2022-10-31T02:36:13.794Z,1008.31
2022-10-31T02:37:13.777Z,1008.30
2022-10-31T02:38:13.770Z,1008.28
2022-10-31T02:39:13.780Z,1008.26
2022-10-31T02:40:13.747Z,1008.24
2022-10-31T02:41:13.729Z,1008.24
2022-10-31T02:42:13.735Z,1008.23
2022-10-31T02:44:13.917Z,1008.26
2022-10-31T02:45:13.698Z,1008.26
2022-10-31T02:46:13.685Z,1008.28
2022-10-31T02:47:13.713Z,1008.28
2022-10-31T02:48:13.671Z,1008.29
2022-10-31T02:49:13.638Z,1008.29
2022-10-31T02:50:13.661Z,1008.27
2022-10-31T02:51:13.659Z,1008.25
2022-10-31T02:52:13.634Z,1008.24
2022-10-31T02:53:13.608Z,1008.25
2022-10-31T02:54:13.610Z,1008.27
2022-10-31T02:55:13.597Z,1008.27
2022-10-31T02:56:13.579Z,1008.27
2022-10-31T02:57:13.643Z,1008.27
2022-10-31T02:58:13.604Z,1008.26
2022-10-31T02:59:13.543Z,1008.26
2022-10-31T03:00:13.554Z,1008.25
2022-10-31T03:01:13.617Z,1008.23
2022-10-31T03:02:13.726Z,1008.20
2022-10-31T03:03:13.499Z,1008.17
2022-10-31T03:04:13.478Z,1008.16
2022-10-31T03:05:13.506Z,1008.16
2022-10-31T03:06:13.491Z,1008.16
2022-10-31T03:07:13.449Z,1008.17
2022-10-31T03:08:13.461Z,1008.17
2022-10-31T03:09:13.472Z,1008.16
2022-10-31T03:10:13.441Z,1008.14
2022-10-31T03:11:13.425Z,1008.12
2022-10-31T03:12:13.417Z,1008.11
2022-10-31T03:13:13.547Z,1008.10
2022-10-31T03:14:13.409Z,1008.12
2022-10-31T03:15:13.389Z,1008.15
2022-10-31T03:16:13.401Z,1008.20
2022-10-31T03:17:13.343Z,1008.23
2022-10-31T03:18:13.357Z,1008.24
2022-10-31T03:19:13.323Z,1008.24
2022-10-31T03:20:13.387Z,1008.24
2022-10-31T03:21:13.305Z,1008.24
2022-10-31T03:22:13.297Z,1008.23
2022-10-31T03:23:13.281Z,1008.22
2022-10-31T03:24:13.296Z,1008.21
2022-10-31T03:25:13.272Z,1008.21
2022-10-31T03:26:13.948Z,1008.23
2022-10-31T03:27:13.280Z,1008.23
2022-10-31T03:28:13.354Z,1008.23
2022-10-31T03:29:13.234Z,1008.23
2022-10-31T03:30:13.245Z,1008.22
2022-10-31T03:31:13.194Z,1008.21
2022-10-31T03:32:13.202Z,1008.19
2022-10-31T03:33:13.173Z,1008.18
2022-10-31T03:34:13.186Z,1008.17
2022-10-31T03:35:13.153Z,1008.15
2022-10-31T03:36:13.180Z,1008.14
2022-10-31T03:37:13.130Z,1008.12
2022-10-31T03:38:13.140Z,1008.11
2022-10-31T03:39:13.114Z,1008.10
2022-10-31T03:40:13.111Z,1008.09
2022-10-31T03:41:13.127Z,1008.09
2022-10-31T03:42:13.094Z,1008.08
2022-10-31T03:43:13.097Z,1008.08
2022-10-31T03:44:13.066Z,1008.07
2022-10-31T03:45:13.066Z,1008.07
2022-10-31T03:46:13.121Z,1008.06
2022-10-31T03:47:13.039Z,1008.05
2022-10-31T03:48:13.086Z,1008.05
2022-10-31T03:49:13.010Z,1008.05
2022-10-31T03:50:13.014Z,1008.05
2022-10-31T03:51:13.003Z,1008.06
2022-10-31T03:52:12.969Z,1008.07
2022-10-31T03:53:12.999Z,1008.07
2022-10-31T03:54:12.961Z,1008.08
2022-10-31T03:55:12.943Z,1008.08
2022-10-31T03:56:13.192Z,1008.10
2022-10-31T03:57:12.934Z,1008.13
2022-10-31T03:58:13.001Z,1008.16
2022-10-31T03:59:12.892Z,1008.17
2022-10-31T04:00:12.903Z,1008.19
2022-10-31T04:01:13.020Z,1008.22
2022-10-31T04:02:12.987Z,1008.24
2022-10-31T04:03:12.883Z,1008.26
2022-10-31T04:04:12.843Z,1008.27
2022-10-31T04:05:12.861Z,1008.27
2022-10-31T04:06:12.822Z,1008.29
2022-10-31T04:07:12.835Z,1008.31
2022-10-31T04:08:12.816Z,1008.32
2022-10-31T04:09:12.820Z,1008.32
2022-10-31T04:10:12.789Z,1008.33
2022-10-31T04:11:12.786Z,1008.33
2022-10-31T04:12:12.774Z,1008.33
2022-10-31T04:13:12.835Z,1008.32
2022-10-31T04:14:12.733Z,1008.32
2022-10-31T04:15:12.743Z,1008.32
2022-10-31T04:16:16.088Z,1008.33
2022-10-31T04:17:12.739Z,1008.33
2022-10-31T04:18:12.700Z,1008.34
2022-10-31T04:19:12.742Z,1008.33
2022-10-31T04:20:12.671Z,1008.32
2022-10-31T04:21:12.680Z,1008.31
2022-10-31T04:22:12.652Z,1008.30
2022-10-31T04:23:14.720Z,1008.28
2022-10-31T04:24:12.657Z,1008.27
2022-10-31T04:25:12.616Z,1008.25
2022-10-31T04:26:12.613Z,1008.23
2022-10-31T04:27:12.624Z,1008.21
2022-10-31T04:28:12.644Z,1008.20
2022-10-31T04:29:12.601Z,1008.20
2022-10-31T04:30:12.570Z,1008.21
2022-10-31T04:31:12.593Z,1008.22
2022-10-31T04:32:12.572Z,1008.22
2022-10-31T04:33:12.540Z,1008.23
2022-10-31T04:34:12.554Z,1008.23
2022-10-31T04:35:12.539Z,1008.23
2022-10-31T04:36:12.540Z,1008.23
2022-10-31T04:37:12.497Z,1008.23
2022-10-31T04:38:12.472Z,1008.23
2022-10-31T04:39:12.486Z,1008.21
2022-10-31T04:40:12.479Z,1008.21
2022-10-31T04:41:12.456Z,1008.21
2022-10-31T04:42:12.522Z,1008.21
2022-10-31T04:43:12.559Z,1008.21
2022-10-31T04:44:12.489Z,1008.21
2022-10-31T04:45:15.515Z,1008.22
2022-10-31T04:46:12.418Z,1008.22
2022-10-31T04:47:12.394Z,1008.21
2022-10-31T04:48:12.382Z,1008.21
2022-10-31T04:49:12.369Z,1008.20
2022-10-31T04:50:12.390Z,1008.19
2022-10-31T04:51:12.348Z,1008.18
2022-10-31T04:52:12.329Z,1008.17
2022-10-31T04:53:12.329Z,1008.16
2022-10-31T04:54:12.314Z,1008.14
2022-10-31T04:55:12.346Z,1008.13
2022-10-31T04:56:12.337Z,1008.13
2022-10-31T04:57:12.276Z,1008.13
2022-10-31T04:58:12.358Z,1008.13
2022-10-31T04:59:13.297Z,1008.12
2022-10-31T05:00:12.250Z,1008.11
2022-10-31T05:01:12.398Z,1008.11
2022-10-31T05:02:12.376Z,1008.12
2022-10-31T05:03:12.228Z,1008.14
2022-10-31T05:04:12.214Z,1008.14
2022-10-31T05:05:12.249Z,1008.14
2022-10-31T05:06:12.195Z,1008.14
2022-10-31T05:07:12.209Z,1008.12
2022-10-31T05:08:12.175Z,1008.11
2022-10-31T05:09:12.161Z,1008.10
2022-10-31T05:10:12.138Z,1008.09
2022-10-31T05:11:12.142Z,1008.09
2022-10-31T05:12:12.157Z,1008.08
2022-10-31T05:13:12.183Z,1008.07
2022-10-31T05:14:12.103Z,1008.06
2022-10-31T05:15:12.111Z,1008.03
2022-10-31T05:16:12.087Z,1008.01
2022-10-31T05:17:12.070Z,1007.99
2022-10-31T05:18:12.086Z,1007.97
2022-10-31T05:19:12.054Z,1007.97
2022-10-31T05:20:13.146Z,1007.97
2022-10-31T05:21:12.044Z,1007.97
2022-10-31T05:22:12.009Z,1007.96
2022-10-31T05:23:12.039Z,1007.93
2022-10-31T05:24:12.022Z,1007.92
2022-10-31T05:25:12.014Z,1007.91
2022-10-31T05:26:11.979Z,1007.90
2022-10-31T05:27:11.961Z,1007.90
2022-10-31T05:28:11.949Z,1007.90
2022-10-31T05:29:11.976Z,1007.90
2022-10-31T05:30:11.927Z,1007.91
2022-10-31T05:31:11.938Z,1007.93
2022-10-31T05:32:11.918Z,1007.93
2022-10-31T05:33:11.904Z,1007.94
2022-10-31T05:34:11.899Z,1007.95
2022-10-31T05:35:11.904Z,1007.95
2022-10-31T05:36:11.859Z,1007.95
2022-10-31T05:37:11.871Z,1007.96
2022-10-31T05:38:11.891Z,1007.97
2022-10-31T05:39:11.884Z,1007.98
2022-10-31T05:40:11.854Z,1007.98
2022-10-31T05:41:12.598Z,1007.98
2022-10-31T05:42:11.799Z,1007.98
2022-10-31T05:43:11.796Z,1007.98
2022-10-31T05:44:11.810Z,1007.98
2022-10-31T05:45:11.793Z,1007.97
2022-10-31T05:46:11.759Z,1007.96
2022-10-31T05:47:11.788Z,1007.95
2022-10-31T05:48:11.773Z,1007.95
2022-10-31T05:49:11.739Z,1007.95
2022-10-31T05:50:11.740Z,1007.96
2022-10-31T05:51:11.712Z,1007.97
2022-10-31T05:52:11.647Z,1007.97
2022-10-31T05:53:11.706Z,1007.98
2022-10-31T05:54:15.819Z,1008.00
2022-10-31T05:55:11.640Z,1008.02
2022-10-31T05:56:11.612Z,1008.03
2022-10-31T05:57:11.643Z,1008.03
2022-10-31T05:58:11.637Z,1008.03
2022-10-31T05:59:11.603Z,1008.01
2022-10-31T06:00:11.576Z,1007.99
2022-10-31T06:01:11.657Z,1007.97
2022-10-31T06:02:11.619Z,1007.96
2022-10-31T06:03:11.560Z,1007.97
2022-10-31T06:04:11.525Z,1007.98
2022-10-31T06:05:11.603Z,1007.98
2022-10-31T06:06:11.542Z,1007.97
2022-10-31T06:07:11.506Z,1007.96
2022-10-31T06:08:11.474Z,1007.95
2022-10-31T06:09:11.504Z,1007.93
2022-10-31T06:10:11.476Z,1007.92
2022-10-31T06:11:11.514Z,1007.92
2022-10-31T06:12:11.455Z,1007.91
2022-10-31T06:13:11.427Z,1007.91
2022-10-31T06:14:11.432Z,1007.91
2022-10-31T06:15:11.450Z,1007.92
2022-10-31T06:16:11.418Z,1007.90
2022-10-31T06:17:11.409Z,1007.89
2022-10-31T06:18:11.386Z,1007.87
2022-10-31T06:19:11.372Z,1007.87
2022-10-31T06:20:11.345Z,1007.86
2022-10-31T06:21:12.547Z,1007.86
2022-10-31T06:22:11.333Z,1007.88
2022-10-31T06:23:11.366Z,1007.90
2022-10-31T06:24:11.302Z,1007.91
2022-10-31T06:25:11.317Z,1007.93
2022-10-31T06:26:11.296Z,1007.93
2022-10-31T06:27:11.306Z,1007.92
2022-10-31T06:28:11.259Z,1007.91
2022-10-31T06:29:11.255Z,1007.91
2022-10-31T06:30:11.221Z,1007.91
2022-10-31T06:31:11.250Z,1007.91
2022-10-31T06:32:11.260Z,1007.92
2022-10-31T06:33:11.205Z,1007.93
2022-10-31T06:34:11.407Z,1007.96
2022-10-31T06:35:11.196Z,1007.98
2022-10-31T06:36:11.161Z,1008.00
2022-10-31T06:37:11.207Z,1008.02
2022-10-31T06:38:11.190Z,1008.04
2022-10-31T06:39:11.155Z,1008.05
2022-10-31T06:40:11.127Z,1008.06
2022-10-31T06:41:11.115Z,1008.05
2022-10-31T06:42:11.133Z,1008.04
2022-10-31T06:43:11.234Z,1008.03
2022-10-31T06:44:11.110Z,1008.03
2022-10-31T06:45:11.083Z,1008.04
2022-10-31T06:46:11.084Z,1008.05
2022-10-31T06:47:11.079Z,1008.06
2022-10-31T06:48:17.115Z,1008.07
2022-10-31T06:49:11.058Z,1008.08
2022-10-31T06:50:12.356Z,1008.08
2022-10-31T06:51:11.013Z,1008.08
2022-10-31T06:52:10.998Z,1008.08
2022-10-31T06:54:10.982Z,1008.09
2022-10-31T06:55:10.987Z,1008.10
2022-10-31T06:56:10.964Z,1008.11
2022-10-31T06:57:10.958Z,1008.12
2022-10-31T06:58:11.247Z,1008.12
2022-10-31T06:59:10.942Z,1008.13
2022-10-31T07:00:10.918Z,1008.13
2022-10-31T07:01:11.065Z,1008.14
2022-10-31T07:02:11.101Z,1008.13
2022-10-31T07:03:10.953Z,1008.14
2022-10-31T07:04:10.887Z,1008.15
2022-10-31T07:05:10.867Z,1008.16
2022-10-31T07:06:10.869Z,1008.18
2022-10-31T07:07:10.867Z,1008.20
2022-10-31T07:08:13.613Z,1008.20
2022-10-31T07:09:10.842Z,1008.19
2022-10-31T07:11:10.824Z,1008.16
2022-10-31T07:12:10.805Z,1008.15
2022-10-31T07:13:10.793Z,1008.14
2022-10-31T07:14:10.993Z,1008.14
2022-10-31T07:15:10.803Z,1008.15
2022-10-31T07:16:10.748Z,1008.16
2022-10-31T07:17:10.756Z,1008.17
2022-10-31T07:18:10.724Z,1008.16
2022-10-31T07:19:10.732Z,1008.17
2022-10-31T07:20:10.708Z,1008.17
2022-10-31T07:21:10.708Z,1008.17
2022-10-31T07:22:10.683Z,1008.17
2022-10-31T07:23:10.687Z,1008.17
2022-10-31T07:24:10.665Z,1008.17
2022-10-31T07:25:10.695Z,1008.17
2022-10-31T07:26:10.638Z,1008.18
2022-10-31T07:27:10.660Z,1008.20
2022-10-31T07:28:10.620Z,1008.22
2022-10-31T07:29:10.615Z,1008.23
2022-10-31T07:30:10.652Z,1008.22
2022-10-31T07:31:10.589Z,1008.22
2022-10-31T07:32:10.574Z,1008.22
2022-10-31T07:33:10.561Z,1008.22
2022-10-31T07:34:10.545Z,1008.22
2022-10-31T07:35:10.559Z,1008.23
2022-10-31T07:36:10.553Z,1008.23
2022-10-31T07:37:10.554Z,1008.22
2022-10-31T07:38:10.514Z,1008.22
2022-10-31T07:39:10.510Z,1008.21
2022-10-31T07:40:12.055Z,1008.21
2022-10-31T07:41:11.772Z,1008.21
2022-10-31T07:42:10.463Z,1008.21
2022-10-31T07:43:13.968Z,1008.21
2022-10-31T07:44:10.442Z,1008.22
2022-10-31T07:45:10.446Z,1008.23
2022-10-31T07:46:10.451Z,1008.22
2022-10-31T07:47:10.434Z,1008.22
2022-10-31T07:48:10.401Z,1008.21
2022-10-31T07:49:10.408Z,1008.20
2022-10-31T07:50:10.395Z,1008.19
2022-10-31T07:51:10.376Z,1008.19
2022-10-31T07:52:10.381Z,1008.20
2022-10-31T07:53:10.395Z,1008.20
2022-10-31T07:54:10.352Z,1008.21
2022-10-31T07:55:10.366Z,1008.22
2022-10-31T07:56:10.367Z,1008.21
2022-10-31T07:57:10.315Z,1008.21
2022-10-31T07:58:10.312Z,1008.22
2022-10-31T07:59:10.306Z,1008.22
2022-10-31T08:00:14.730Z,1008.21
2022-10-31T08:01:10.405Z,1008.22
2022-10-31T08:02:10.266Z,1008.21
2022-10-31T08:03:10.279Z,1008.19
2022-10-31T08:04:10.310Z,1008.17
2022-10-31T08:05:10.256Z,1008.16
2022-10-31T08:06:10.210Z,1008.16
2022-10-31T08:07:11.004Z,1008.16
2022-10-31T08:08:10.187Z,1008.17
2022-10-31T08:09:10.246Z,1008.18
2022-10-31T08:10:10.344Z,1008.18
2022-10-31T08:11:10.197Z,1008.19
2022-10-31T08:12:10.150Z,1008.20
2022-10-31T08:13:10.151Z,1008.21
2022-10-31T08:14:10.139Z,1008.22
2022-10-31T08:15:10.124Z,1008.22
2022-10-31T08:16:10.597Z,1008.21
2022-10-31T08:17:10.161Z,1008.20
2022-10-31T08:18:10.077Z,1008.19
2022-10-31T08:19:10.162Z,1008.18
2022-10-31T08:20:12.960Z,1008.17
2022-10-31T08:21:10.066Z,1008.15
2022-10-31T08:22:10.058Z,1008.13
2022-10-31T08:23:10.078Z,1008.11
2022-10-31T08:24:10.030Z,1008.08
2022-10-31T08:25:10.038Z,1008.06
2022-10-31T08:26:09.996Z,1008.05
2022-10-31T08:27:10.006Z,1008.04
2022-10-31T08:28:10.048Z,1008.04
2022-10-31T08:29:09.953Z,1008.05
2022-10-31T08:30:09.962Z,1008.06
2022-10-31T08:31:09.940Z,1008.07
2022-10-31T08:32:09.931Z,1008.06
2022-10-31T08:33:09.938Z,1008.06
2022-10-31T08:34:09.940Z,1008.06
2022-10-31T08:35:10.137Z,1008.07
2022-10-31T08:36:09.894Z,1008.09
2022-10-31T08:37:09.895Z,1008.12
2022-10-31T08:38:09.890Z,1008.14
2022-10-31T08:39:09.891Z,1008.17
2022-10-31T08:40:11.471Z,1008.17
2022-10-31T08:41:09.845Z,1008.16
2022-10-31T08:42:10.525Z,1008.11
2022-10-31T08:43:09.817Z,1008.06
2022-10-31T08:44:09.862Z,1008.04
2022-10-31T08:45:09.813Z,1008.03
2022-10-31T08:46:09.797Z,1008.03
2022-10-31T08:47:09.766Z,1008.01
2022-10-31T08:48:09.776Z,1007.98
2022-10-31T08:49:09.757Z,1007.95
2022-10-31T08:50:11.628Z,1007.92
2022-10-31T08:51:09.738Z,1007.90
2022-10-31T08:52:14.310Z,1007.89
2022-10-31T08:53:09.732Z,1007.88
2022-10-31T08:54:09.701Z,1007.88
2022-10-31T08:55:09.672Z,1007.89
2022-10-31T08:56:09.741Z,1007.90
2022-10-31T08:57:09.671Z,1007.90
2022-10-31T08:58:09.665Z,1007.90
2022-10-31T08:59:09.646Z,1007.89
2022-10-31T09:00:09.658Z,1007.89
2022-10-31T09:01:09.737Z,1007.89
2022-10-31T09:02:09.830Z,1007.89
2022-10-31T09:03:09.616Z,1007.90
2022-10-31T09:04:09.589Z,1007.91
2022-10-31T09:05:09.618Z,1007.92
2022-10-31T09:06:09.720Z,1007.92
2022-10-31T09:07:24.814Z,1007.93
2022-10-31T09:08:15.710Z,1007.95
2022-10-31T09:09:09.547Z,1007.95
2022-10-31T09:10:09.530Z,1007.96
2022-10-31T09:11:09.732Z,1007.97
2022-10-31T09:12:09.493Z,1007.97
2022-10-31T09:13:09.486Z,1007.98
2022-10-31T09:14:09.488Z,1007.98
2022-10-31T09:15:09.478Z,1007.98
2022-10-31T09:16:09.471Z,1007.96
2022-10-31T09:17:09.457Z,1007.96
2022-10-31T09:18:09.438Z,1007.95
2022-10-31T09:19:11.507Z,1007.95
2022-10-31T09:20:09.452Z,1007.94
2022-10-31T09:21:09.403Z,1007.92
2022-10-31T09:22:09.433Z,1007.91
2022-10-31T09:23:09.383Z,1007.91
2022-10-31T09:24:09.376Z,1007.91
2022-10-31T09:25:09.379Z,1007.91
2022-10-31T09:26:09.389Z,1007.90
2022-10-31T09:27:09.346Z,1007.89
2022-10-31T09:28:09.351Z,1007.87
2022-10-31T09:29:09.315Z,1007.87
2022-10-31T09:30:09.342Z,1007.87
2022-10-31T09:31:09.293Z,1007.87
2022-10-31T09:32:09.307Z,1007.88
2022-10-31T09:33:31.801Z,1007.88
2022-10-31T09:34:09.270Z,1007.89
2022-10-31T09:35:09.335Z,1007.89
2022-10-31T09:36:09.238Z,1007.89
2022-10-31T09:37:09.246Z,1007.89
2022-10-31T09:38:09.218Z,1007.90
2022-10-31T09:39:09.208Z,1007.89
2022-10-31T09:40:09.206Z,1007.88
2022-10-31T09:41:10.748Z,1007.88
2022-10-31T09:42:09.174Z,1007.86
2022-10-31T09:43:10.817Z,1007.83
2022-10-31T09:44:09.159Z,1007.80
2022-10-31T09:45:09.164Z,1007.79
2022-10-31T09:46:09.184Z,1007.77
2022-10-31T09:47:09.120Z,1007.77
2022-10-31T09:48:09.129Z,1007.77
2022-10-31T09:49:09.130Z,1007.77
2022-10-31T09:50:09.095Z,1007.76
2022-10-31T09:51:09.485Z,1007.76
2022-10-31T09:53:09.070Z,1007.74
2022-10-31T09:54:09.065Z,1007.72
2022-10-31T09:55:09.045Z,1007.71
2022-10-31T09:56:09.097Z,1007.70
2022-10-31T09:57:09.028Z,1007.69
2022-10-31T09:58:09.010Z,1007.69
2022-10-31T09:59:10.239Z,1007.69
2022-10-31T10:00:08.997Z,1007.70
2022-10-31T10:01:09.189Z,1007.72
2022-10-31T10:02:09.102Z,1007.74
2022-10-31T10:03:08.949Z,1007.75
2022-10-31T10:04:08.937Z,1007.75
2022-10-31T10:05:08.932Z,1007.74
2022-10-31T10:06:08.937Z,1007.73
2022-10-31T10:07:08.959Z,1007.70
2022-10-31T10:08:08.924Z,1007.69
2022-10-31T10:09:08.948Z,1007.66
2022-10-31T10:10:09.064Z,1007.65
2022-10-31T10:11:09.721Z,1007.64
2022-10-31T10:12:08.865Z,1007.64
2022-10-31T10:13:12.186Z,1007.64
2022-10-31T10:14:08.838Z,1007.65
2022-10-31T10:15:08.960Z,1007.64
2022-10-31T10:16:08.821Z,1007.65
2022-10-31T10:17:08.834Z,1007.64
2022-10-31T10:18:08.773Z,1007.64
2022-10-31T10:19:08.800Z,1007.63
2022-10-31T10:20:08.761Z,1007.60
2022-10-31T10:21:08.759Z,1007.59
2022-10-31T10:22:08.749Z,1007.57
2022-10-31T10:23:08.760Z,1007.56
2022-10-31T10:24:08.739Z,1007.55
2022-10-31T10:25:08.715Z,1007.54
2022-10-31T10:26:11.195Z,1007.54
2022-10-31T10:27:08.703Z,1007.54
2022-10-31T10:28:08.674Z,1007.54
2022-10-31T10:29:08.717Z,1007.54
2022-10-31T10:30:08.652Z,1007.54
2022-10-31T10:31:08.673Z,1007.54
2022-10-31T10:32:08.682Z,1007.54
2022-10-31T10:33:08.645Z,1007.53
2022-10-31T10:34:08.650Z,1007.51
2022-10-31T10:35:08.674Z,1007.50
2022-10-31T10:36:08.733Z,1007.49
2022-10-31T10:37:08.742Z,1007.49
2022-10-31T10:38:08.609Z,1007.48
2022-10-31T10:39:08.573Z,1007.47
2022-10-31T10:40:08.562Z,1007.47
2022-10-31T10:41:08.558Z,1007.44
2022-10-31T10:42:08.705Z,1007.43
2022-10-31T10:43:08.527Z,1007.40
2022-10-31T10:44:08.533Z,1007.38
2022-10-31T10:45:08.523Z,1007.35
2022-10-31T10:46:11.622Z,1007.34
2022-10-31T10:47:08.505Z,1007.32
2022-10-31T10:48:08.470Z,1007.30
2022-10-31T10:49:08.492Z,1007.29
2022-10-31T10:50:08.450Z,1007.28
2022-10-31T10:51:16.036Z,1007.27
2022-10-31T10:53:08.449Z,1007.23
2022-10-31T10:54:10.554Z,1007.22
2022-10-31T10:55:08.400Z,1007.18
2022-10-31T10:56:08.378Z,1007.15
2022-10-31T10:57:08.392Z,1007.14
2022-10-31T10:58:08.356Z,1007.13
2022-10-31T10:59:08.365Z,1007.12
2022-10-31T11:00:08.363Z,1007.11
2022-10-31T11:01:08.588Z,1007.10
2022-10-31T11:02:08.327Z,1007.09
2022-10-31T11:03:08.334Z,1007.05
2022-10-31T11:04:08.301Z,1007.01
2022-10-31T11:05:08.290Z,1006.95
2022-10-31T11:06:08.293Z,1006.91
2022-10-31T11:07:08.275Z,1006.90
2022-10-31T11:08:08.266Z,1006.90
2022-10-31T11:09:08.252Z,1006.90
2022-10-31T11:10:08.303Z,1006.88
2022-10-31T11:11:08.239Z,1006.89
2022-10-31T11:12:08.224Z,1006.86
2022-10-31T11:13:08.224Z,1006.85
2022-10-31T11:14:08.202Z,1006.82
2022-10-31T11:15:09.694Z,1006.78
2022-10-31T11:16:08.163Z,1006.77
2022-10-31T11:17:08.173Z,1006.76
2022-10-31T11:18:08.156Z,1006.76
2022-10-31T11:19:08.142Z,1006.76
2022-10-31T11:20:08.133Z,1006.73
2022-10-31T11:21:08.168Z,1006.72
2022-10-31T11:22:08.115Z,1006.69
2022-10-31T11:23:08.277Z,1006.69
2022-10-31T11:24:08.069Z,1006.65
2022-10-31T11:25:08.074Z,1006.64
2022-10-31T11:26:08.074Z,1006.66
2022-10-31T11:27:08.055Z,1006.62
2022-10-31T11:28:08.067Z,1006.62
2022-10-31T11:29:08.034Z,1006.62
2022-10-31T11:30:10.987Z,1006.61
2022-10-31T11:31:08.003Z,1006.60
2022-10-31T11:32:08.010Z,1006.60
2022-10-31T11:33:07.993Z,1006.57
2022-10-31T11:34:09.525Z,1006.55
2022-10-31T11:35:08.063Z,1006.52
2022-10-31T11:36:07.945Z,1006.49
2022-10-31T11:37:07.944Z,1006.45
2022-10-31T11:38:09.144Z,1006.43
2022-10-31T11:39:07.961Z,1006.41
2022-10-31T11:40:09.657Z,1006.38
2022-10-31T11:41:07.912Z,1006.36
2022-10-31T11:42:10.515Z,1006.32
2022-10-31T11:43:07.987Z,1006.34
2022-10-31T11:44:08.118Z,1006.37
2022-10-31T11:45:10.013Z,1006.38
2022-10-31T11:46:07.910Z,1006.37
2022-10-31T11:47:08.720Z,1006.33
2022-10-31T11:48:29.124Z,1006.30
2022-10-31T11:49:08.498Z,1006.25
2022-10-31T11:50:09.163Z,1006.21
2022-10-31T11:51:07.968Z,1006.17
2022-10-31T11:52:07.826Z,1006.15
2022-10-31T11:53:07.765Z,1006.11
2022-10-31T11:54:07.804Z,1006.11
2022-10-31T11:55:08.913Z,1006.08
2022-10-31T11:56:07.880Z,1006.02
2022-10-31T11:57:07.786Z,1005.97
2022-10-31T11:58:07.726Z,1005.93
2022-10-31T11:59:10.549Z,1005.89
2022-10-31T12:00:07.718Z,1005.86
2022-10-31T12:01:07.873Z,1005.86
2022-10-31T12:02:07.961Z,1005.82
2022-10-31T12:03:11.534Z,1005.83
2022-10-31T12:04:07.912Z,1005.81
2022-10-31T12:05:08.752Z,1005.82
2022-10-31T12:06:14.735Z,1005.81
2022-10-31T12:07:07.743Z,1005.81
2022-10-31T12:08:07.644Z,1005.78
2022-10-31T12:09:07.603Z,1005.76
2022-10-31T12:10:07.611Z,1005.74
2022-10-31T12:11:08.755Z,1005.74